sensor_id;sensor_type;location;lat;lon;timestamp;P1;durP1;ratioP1;P2;durP2;ratioP2
33505;SDS011;19843;51.040;13.782;2024-02-16T00:00:19;6.13;;;4.43;;
33505;SDS011;19843;51.040;13.782;2024-02-16T00:02:46;9.90;;;5.53;;
33505;SDS011;19843;51.040;13.782;2024-02-16T00:05:14;7.53;;;4.38;;
33505;SDS011;19843;51.040;13.782;2024-02-16T00:07:41;8.02;;;4.47;;
33505;SDS011;19843;51.040;13.782;2024-02-16T00:10:09;6.15;;;4.25;;
33505;SDS011;19843;51.040;13.782;2024-02-16T00:12:38;6.82;;;4.65;;
33505;SDS011;19843;51.040;13.782;2024-02-16T00:15:07;8.95;;;4.60;;
33505;SDS011;19843;51.040;13.782;2024-02-16T00:17:37;6.93;;;3.80;;
33505;SDS011;19843;51.040;13.782;2024-02-16T00:20:05;5.57;;;4.28;;
33505;SDS011;19843;51.040;13.782;2024-02-16T00:22:34;6.05;;;4.40;;
33505;SDS011;19843;51.040;13.782;2024-02-16T00:25:02;8.27;;;4.63;;
33505;SDS011;19843;51.040;13.782;2024-02-16T00:27:29;8.02;;;5.13;;
33505;SDS011;19843;51.040;13.782;2024-02-16T00:29:57;9.32;;;4.65;;
33505;SDS011;19843;51.040;13.782;2024-02-16T00:32:27;5.95;;;4.45;;
33505;SDS011;19843;51.040;13.782;2024-02-16T00:34:57;8.80;;;4.88;;
33505;SDS011;19843;51.040;13.782;2024-02-16T00:37:25;6.80;;;4.55;;
33505;SDS011;19843;51.040;13.782;2024-02-16T00:39:52;8.45;;;4.88;;
33505;SDS011;19843;51.040;13.782;2024-02-16T00:42:20;6.78;;;4.18;;
33505;SDS011;19843;51.040;13.782;2024-02-16T00:44:49;6.82;;;4.22;;
33505;SDS011;19843;51.040;13.782;2024-02-16T00:47:16;6.60;;;4.68;;
33505;SDS011;19843;51.040;13.782;2024-02-16T00:49:45;8.50;;;4.85;;
33505;SDS011;19843;51.040;13.782;2024-02-16T00:52:13;7.47;;;4.35;;
33505;SDS011;19843;51.040;13.782;2024-02-16T00:54:40;6.25;;;4.28;;
33505;SDS011;19843;51.040;13.782;2024-02-16T00:57:07;8.27;;;4.68;;
33505;SDS011;19843;51.040;13.782;2024-02-16T00:59:35;5.28;;;4.22;;
33505;SDS011;19843;51.040;13.782;2024-02-16T01:02:02;6.55;;;4.60;;
33505;SDS011;19843;51.040;13.782;2024-02-16T01:04:30;6.57;;;4.32;;
33505;SDS011;19843;51.040;13.782;2024-02-16T01:06:58;7.55;;;4.30;;
33505;SDS011;19843;51.040;13.782;2024-02-16T01:09:25;6.78;;;4.50;;
33505;SDS011;19843;51.040;13.782;2024-02-16T01:11:53;8.98;;;5.35;;
33505;SDS011;19843;51.040;13.782;2024-02-16T01:14:21;8.23;;;5.20;;
33505;SDS011;19843;51.040;13.782;2024-02-16T01:16:48;8.88;;;5.18;;
33505;SDS011;19843;51.040;13.782;2024-02-16T01:19:16;9.10;;;5.50;;
33505;SDS011;19843;51.040;13.782;2024-02-16T01:21:44;8.52;;;5.53;;
33505;SDS011;19843;51.040;13.782;2024-02-16T01:24:15;7.35;;;4.65;;
33505;SDS011;19843;51.040;13.782;2024-02-16T01:26:42;7.60;;;4.75;;
33505;SDS011;19843;51.040;13.782;2024-02-16T01:29:10;10.23;;;5.18;;
33505;SDS011;19843;51.040;13.782;2024-02-16T01:31:37;7.95;;;5.53;;
33505;SDS011;19843;51.040;13.782;2024-02-16T01:34:05;8.40;;;4.88;;
33505;SDS011;19843;51.040;13.782;2024-02-16T01:36:33;6.50;;;4.40;;
33505;SDS011;19843;51.040;13.782;2024-02-16T01:39:01;9.43;;;5.47;;
33505;SDS011;19843;51.040;13.782;2024-02-16T01:41:29;8.05;;;5.45;;
33505;SDS011;19843;51.040;13.782;2024-02-16T01:43:57;10.68;;;6.05;;
33505;SDS011;19843;51.040;13.782;2024-02-16T01:46:25;10.07;;;6.00;;
33505;SDS011;19843;51.040;13.782;2024-02-16T01:48:53;7.10;;;5.13;;
33505;SDS011;19843;51.040;13.782;2024-02-16T01:51:22;9.27;;;5.88;;
33505;SDS011;19843;51.040;13.782;2024-02-16T01:53:52;9.57;;;6.90;;
33505;SDS011;19843;51.040;13.782;2024-02-16T01:56:21;9.32;;;6.10;;
33505;SDS011;19843;51.040;13.782;2024-02-16T01:58:50;9.27;;;5.13;;
33505;SDS011;19843;51.040;13.782;2024-02-16T02:01:17;10.30;;;5.90;;
33505;SDS011;19843;51.040;13.782;2024-02-16T02:03:45;9.90;;;5.90;;
33505;SDS011;19843;51.040;13.782;2024-02-16T02:06:12;9.50;;;5.50;;
33505;SDS011;19843;51.040;13.782;2024-02-16T02:08:40;8.52;;;5.95;;
33505;SDS011;19843;51.040;13.782;2024-02-16T02:11:07;10.55;;;6.60;;
33505;SDS011;19843;51.040;13.782;2024-02-16T02:13:35;8.88;;;5.60;;
33505;SDS011;19843;51.040;13.782;2024-02-16T02:16:05;11.43;;;5.82;;
33505;SDS011;19843;51.040;13.782;2024-02-16T02:18:34;11.38;;;6.63;;
33505;SDS011;19843;51.040;13.782;2024-02-16T02:21:01;9.43;;;5.93;;
33505;SDS011;19843;51.040;13.782;2024-02-16T02:23:30;9.95;;;5.88;;
33505;SDS011;19843;51.040;13.782;2024-02-16T02:25:58;9.20;;;5.78;;
33505;SDS011;19843;51.040;13.782;2024-02-16T02:28:25;9.48;;;5.93;;
33505;SDS011;19843;51.040;13.782;2024-02-16T02:30:52;8.95;;;6.03;;
33505;SDS011;19843;51.040;13.782;2024-02-16T02:33:21;9.93;;;5.82;;
33505;SDS011;19843;51.040;13.782;2024-02-16T02:35:48;9.85;;;6.38;;
33505;SDS011;19843;51.040;13.782;2024-02-16T02:38:16;8.27;;;5.53;;
33505;SDS011;19843;51.040;13.782;2024-02-16T02:40:45;10.57;;;6.13;;
33505;SDS011;19843;51.040;13.782;2024-02-16T02:43:12;9.10;;;6.00;;
33505;SDS011;19843;51.040;13.782;2024-02-16T02:45:40;10.85;;;5.57;;
33505;SDS011;19843;51.040;13.782;2024-02-16T02:48:07;9.25;;;6.05;;
33505;SDS011;19843;51.040;13.782;2024-02-16T02:50:35;9.27;;;6.20;;
33505;SDS011;19843;51.040;13.782;2024-02-16T02:53:03;8.93;;;6.40;;
33505;SDS011;19843;51.040;13.782;2024-02-16T02:55:30;9.23;;;5.80;;
33505;SDS011;19843;51.040;13.782;2024-02-16T02:57:59;10.98;;;6.75;;
33505;SDS011;19843;51.040;13.782;2024-02-16T03:00:26;9.02;;;6.07;;
33505;SDS011;19843;51.040;13.782;2024-02-16T03:02:54;12.70;;;6.90;;
33505;SDS011;19843;51.040;13.782;2024-02-16T03:05:22;11.98;;;7.07;;
33505;SDS011;19843;51.040;13.782;2024-02-16T03:07:49;7.75;;;5.07;;
33505;SDS011;19843;51.040;13.782;2024-02-16T03:10:17;10.77;;;6.05;;
33505;SDS011;19843;51.040;13.782;2024-02-16T03:12:48;11.48;;;6.50;;
33505;SDS011;19843;51.040;13.782;2024-02-16T03:15:17;10.20;;;6.05;;
33505;SDS011;19843;51.040;13.782;2024-02-16T03:17:45;10.50;;;6.43;;
33505;SDS011;19843;51.040;13.782;2024-02-16T03:20:12;11.45;;;7.03;;
33505;SDS011;19843;51.040;13.782;2024-02-16T03:22:40;8.57;;;6.07;;
33505;SDS011;19843;51.040;13.782;2024-02-16T03:25:07;13.80;;;7.55;;
33505;SDS011;19843;51.040;13.782;2024-02-16T03:27:35;12.23;;;7.25;;
33505;SDS011;19843;51.040;13.782;2024-02-16T03:30:04;8.27;;;5.90;;
33505;SDS011;19843;51.040;13.782;2024-02-16T03:32:34;10.43;;;6.15;;
33505;SDS011;19843;51.040;13.782;2024-02-16T03:35:02;11.10;;;6.43;;
33505;SDS011;19843;51.040;13.782;2024-02-16T03:37:30;9.80;;;6.78;;
33505;SDS011;19843;51.040;13.782;2024-02-16T03:39:57;10.63;;;6.78;;
33505;SDS011;19843;51.040;13.782;2024-02-16T03:42:25;10.02;;;5.88;;
33505;SDS011;19843;51.040;13.782;2024-02-16T03:44:52;10.10;;;6.63;;
33505;SDS011;19843;51.040;13.782;2024-02-16T03:47:20;10.52;;;6.30;;
33505;SDS011;19843;51.040;13.782;2024-02-16T03:49:49;10.77;;;6.82;;
33505;SDS011;19843;51.040;13.782;2024-02-16T03:52:17;11.73;;;6.03;;
33505;SDS011;19843;51.040;13.782;2024-02-16T03:54:43;9.98;;;6.20;;
33505;SDS011;19843;51.040;13.782;2024-02-16T03:57:14;10.95;;;7.28;;
33505;SDS011;19843;51.040;13.782;2024-02-16T03:59:42;16.67;;;8.63;;
33505;SDS011;19843;51.040;13.782;2024-02-16T04:02:10;11.10;;;7.18;;
33505;SDS011;19843;51.040;13.782;2024-02-16T04:04:39;9.93;;;6.32;;
33505;SDS011;19843;51.040;13.782;2024-02-16T04:07:08;11.13;;;6.47;;
33505;SDS011;19843;51.040;13.782;2024-02-16T04:09:36;12.02;;;7.15;;
33505;SDS011;19843;51.040;13.782;2024-02-16T04:12:04;9.40;;;6.88;;
33505;SDS011;19843;51.040;13.782;2024-02-16T04:14:32;11.05;;;6.80;;
33505;SDS011;19843;51.040;13.782;2024-02-16T04:16:59;11.40;;;6.93;;
33505;SDS011;19843;51.040;13.782;2024-02-16T04:19:27;10.50;;;7.18;;
33505;SDS011;19843;51.040;13.782;2024-02-16T04:21:55;10.45;;;7.65;;
33505;SDS011;19843;51.040;13.782;2024-02-16T04:24:27;12.05;;;7.22;;
33505;SDS011;19843;51.040;13.782;2024-02-16T04:26:54;11.88;;;6.95;;
33505;SDS011;19843;51.040;13.782;2024-02-16T04:29:22;8.55;;;6.30;;
33505;SDS011;19843;51.040;13.782;2024-02-16T04:31:50;12.10;;;7.85;;
33505;SDS011;19843;51.040;13.782;2024-02-16T04:34:17;9.45;;;7.22;;
33505;SDS011;19843;51.040;13.782;2024-02-16T04:36:45;12.82;;;6.72;;
33505;SDS011;19843;51.040;13.782;2024-02-16T04:39:12;11.68;;;6.88;;
33505;SDS011;19843;51.040;13.782;2024-02-16T04:41:42;9.80;;;6.43;;
33505;SDS011;19843;51.040;13.782;2024-02-16T04:44:09;10.95;;;6.65;;
33505;SDS011;19843;51.040;13.782;2024-02-16T04:46:37;10.60;;;7.28;;
33505;SDS011;19843;51.040;13.782;2024-02-16T04:49:05;9.27;;;6.30;;
33505;SDS011;19843;51.040;13.782;2024-02-16T04:51:32;11.10;;;7.70;;
33505;SDS011;19843;51.040;13.782;2024-02-16T04:54:00;9.35;;;6.50;;
33505;SDS011;19843;51.040;13.782;2024-02-16T04:56:30;10.82;;;6.57;;
33505;SDS011;19843;51.040;13.782;2024-02-16T04:58:59;10.18;;;6.43;;
33505;SDS011;19843;51.040;13.782;2024-02-16T05:01:26;12.70;;;7.05;;
33505;SDS011;19843;51.040;13.782;2024-02-16T05:03:55;11.20;;;7.18;;
33505;SDS011;19843;51.040;13.782;2024-02-16T05:06:23;9.70;;;6.55;;
33505;SDS011;19843;51.040;13.782;2024-02-16T05:08:51;11.05;;;6.95;;
33505;SDS011;19843;51.040;13.782;2024-02-16T05:11:19;8.90;;;6.10;;
33505;SDS011;19843;51.040;13.782;2024-02-16T05:13:48;10.63;;;6.90;;
33505;SDS011;19843;51.040;13.782;2024-02-16T05:16:16;13.77;;;8.25;;
33505;SDS011;19843;51.040;13.782;2024-02-16T05:18:44;12.73;;;7.13;;
33505;SDS011;19843;51.040;13.782;2024-02-16T05:21:12;12.65;;;7.75;;
33505;SDS011;19843;51.040;13.782;2024-02-16T05:23:40;8.93;;;6.07;;
33505;SDS011;19843;51.040;13.782;2024-02-16T05:26:07;10.55;;;6.85;;
33505;SDS011;19843;51.040;13.782;2024-02-16T05:28:35;11.32;;;7.18;;
33505;SDS011;19843;51.040;13.782;2024-02-16T05:31:04;14.32;;;7.38;;
33505;SDS011;19843;51.040;13.782;2024-02-16T05:33:43;12.55;;;6.65;;
33505;SDS011;19843;51.040;13.782;2024-02-16T05:36:11;10.27;;;6.85;;
33505;SDS011;19843;51.040;13.782;2024-02-16T05:38:39;10.30;;;7.30;;
33505;SDS011;19843;51.040;13.782;2024-02-16T05:41:09;10.63;;;7.70;;
33505;SDS011;19843;51.040;13.782;2024-02-16T05:43:37;9.27;;;6.45;;
33505;SDS011;19843;51.040;13.782;2024-02-16T05:46:05;10.43;;;7.07;;
33505;SDS011;19843;51.040;13.782;2024-02-16T05:48:33;12.70;;;7.43;;
33505;SDS011;19843;51.040;13.782;2024-02-16T05:51:05;15.18;;;8.25;;
33505;SDS011;19843;51.040;13.782;2024-02-16T05:53:33;10.45;;;6.28;;
33505;SDS011;19843;51.040;13.782;2024-02-16T05:56:01;10.98;;;6.93;;
33505;SDS011;19843;51.040;13.782;2024-02-16T05:58:30;10.27;;;6.80;;
33505;SDS011;19843;51.040;13.782;2024-02-16T06:00:57;11.15;;;7.72;;
33505;SDS011;19843;51.040;13.782;2024-02-16T06:03:25;12.68;;;7.95;;
33505;SDS011;19843;51.040;13.782;2024-02-16T06:05:54;9.82;;;6.05;;
33505;SDS011;19843;51.040;13.782;2024-02-16T06:08:22;10.68;;;6.93;;
33505;SDS011;19843;51.040;13.782;2024-02-16T06:10:54;11.18;;;7.32;;
33505;SDS011;19843;51.040;13.782;2024-02-16T06:13:21;10.85;;;6.82;;
33505;SDS011;19843;51.040;13.782;2024-02-16T06:15:49;10.82;;;7.65;;
33505;SDS011;19843;51.040;13.782;2024-02-16T06:18:16;9.65;;;7.03;;
33505;SDS011;19843;51.040;13.782;2024-02-16T06:20:44;11.57;;;6.95;;
33505;SDS011;19843;51.040;13.782;2024-02-16T06:23:11;11.45;;;7.90;;
33505;SDS011;19843;51.040;13.782;2024-02-16T06:25:40;12.48;;;7.47;;
33505;SDS011;19843;51.040;13.782;2024-02-16T06:28:08;12.38;;;7.57;;
33505;SDS011;19843;51.040;13.782;2024-02-16T06:30:36;12.70;;;7.05;;
33505;SDS011;19843;51.040;13.782;2024-02-16T06:33:03;10.77;;;6.82;;
33505;SDS011;19843;51.040;13.782;2024-02-16T06:35:31;11.90;;;7.43;;
33505;SDS011;19843;51.040;13.782;2024-02-16T06:37:59;11.18;;;6.60;;
33505;SDS011;19843;51.040;13.782;2024-02-16T06:40:26;14.05;;;7.88;;
33505;SDS011;19843;51.040;13.782;2024-02-16T06:42:55;14.30;;;8.95;;
33505;SDS011;19843;51.040;13.782;2024-02-16T06:45:22;14.20;;;7.72;;
33505;SDS011;19843;51.040;13.782;2024-02-16T06:47:50;13.38;;;7.60;;
33505;SDS011;19843;51.040;13.782;2024-02-16T06:50:18;14.68;;;8.35;;
33505;SDS011;19843;51.040;13.782;2024-02-16T06:52:46;11.95;;;6.97;;
33505;SDS011;19843;51.040;13.782;2024-02-16T06:55:14;11.80;;;7.47;;
33505;SDS011;19843;51.040;13.782;2024-02-16T06:57:41;13.68;;;7.47;;
33505;SDS011;19843;51.040;13.782;2024-02-16T07:00:12;11.25;;;7.68;;
33505;SDS011;19843;51.040;13.782;2024-02-16T07:02:42;12.55;;;8.30;;
33505;SDS011;19843;51.040;13.782;2024-02-16T07:05:10;12.38;;;8.40;;
33505;SDS011;19843;51.040;13.782;2024-02-16T07:07:39;11.63;;;7.55;;
33505;SDS011;19843;51.040;13.782;2024-02-16T07:10:07;13.18;;;8.05;;
33505;SDS011;19843;51.040;13.782;2024-02-16T07:12:40;15.68;;;8.57;;
33505;SDS011;19843;51.040;13.782;2024-02-16T07:15:08;13.25;;;7.78;;
33505;SDS011;19843;51.040;13.782;2024-02-16T07:17:37;13.23;;;7.80;;
33505;SDS011;19843;51.040;13.782;2024-02-16T07:20:05;14.52;;;8.40;;
33505;SDS011;19843;51.040;13.782;2024-02-16T07:22:33;13.20;;;7.68;;
33505;SDS011;19843;51.040;13.782;2024-02-16T07:25:00;10.88;;;7.55;;
33505;SDS011;19843;51.040;13.782;2024-02-16T07:27:31;12.18;;;7.93;;
33505;SDS011;19843;51.040;13.782;2024-02-16T07:29:59;13.13;;;9.00;;
33505;SDS011;19843;51.040;13.782;2024-02-16T07:32:26;13.73;;;8.88;;
33505;SDS011;19843;51.040;13.782;2024-02-16T07:34:55;13.30;;;7.93;;
33505;SDS011;19843;51.040;13.782;2024-02-16T07:37:22;12.65;;;8.07;;
33505;SDS011;19843;51.040;13.782;2024-02-16T07:39:50;16.15;;;8.55;;
33505;SDS011;19843;51.040;13.782;2024-02-16T07:42:18;13.60;;;7.82;;
33505;SDS011;19843;51.040;13.782;2024-02-16T07:44:47;10.75;;;7.30;;
33505;SDS011;19843;51.040;13.782;2024-02-16T07:47:14;11.15;;;6.95;;
33505;SDS011;19843;51.040;13.782;2024-02-16T07:49:42;13.00;;;8.18;;
33505;SDS011;19843;51.040;13.782;2024-02-16T07:52:10;13.18;;;8.55;;
33505;SDS011;19843;51.040;13.782;2024-02-16T07:54:38;11.40;;;7.07;;
33505;SDS011;19843;51.040;13.782;2024-02-16T07:57:05;12.15;;;8.38;;
33505;SDS011;19843;51.040;13.782;2024-02-16T07:59:33;14.02;;;9.48;;
33505;SDS011;19843;51.040;13.782;2024-02-16T08:02:01;11.80;;;7.13;;
33505;SDS011;19843;51.040;13.782;2024-02-16T08:04:29;13.32;;;8.13;;
33505;SDS011;19843;51.040;13.782;2024-02-16T08:06:56;11.70;;;7.72;;
33505;SDS011;19843;51.040;13.782;2024-02-16T08:09:25;11.82;;;7.25;;
33505;SDS011;19843;51.040;13.782;2024-02-16T08:11:53;13.00;;;8.45;;
33505;SDS011;19843;51.040;13.782;2024-02-16T08:14:21;11.85;;;7.72;;
33505;SDS011;19843;51.040;13.782;2024-02-16T08:16:48;13.63;;;7.75;;
33505;SDS011;19843;51.040;13.782;2024-02-16T08:19:20;12.73;;;7.50;;
33505;SDS011;19843;51.040;13.782;2024-02-16T08:21:48;11.35;;;7.60;;
33505;SDS011;19843;51.040;13.782;2024-02-16T08:24:15;10.88;;;7.30;;
33505;SDS011;19843;51.040;13.782;2024-02-16T08:26:44;12.65;;;7.57;;
33505;SDS011;19843;51.040;13.782;2024-02-16T08:29:11;11.38;;;7.32;;
33505;SDS011;19843;51.040;13.782;2024-02-16T08:31:39;11.68;;;6.75;;
33505;SDS011;19843;51.040;13.782;2024-02-16T08:34:07;11.63;;;7.65;;
33505;SDS011;19843;51.040;13.782;2024-02-16T08:36:36;11.73;;;7.63;;
33505;SDS011;19843;51.040;13.782;2024-02-16T08:39:06;12.88;;;7.80;;
33505;SDS011;19843;51.040;13.782;2024-02-16T08:41:34;12.32;;;7.95;;
33505;SDS011;19843;51.040;13.782;2024-02-16T08:44:03;10.45;;;7.50;;
33505;SDS011;19843;51.040;13.782;2024-02-16T08:46:31;12.10;;;7.18;;
33505;SDS011;19843;51.040;13.782;2024-02-16T08:48:58;14.52;;;8.73;;
33505;SDS011;19843;51.040;13.782;2024-02-16T08:51:26;14.50;;;8.00;;
33505;SDS011;19843;51.040;13.782;2024-02-16T08:53:54;13.95;;;7.55;;
33505;SDS011;19843;51.040;13.782;2024-02-16T08:56:21;13.13;;;8.85;;
33505;SDS011;19843;51.040;13.782;2024-02-16T08:58:48;14.32;;;8.40;;
33505;SDS011;19843;51.040;13.782;2024-02-16T09:01:17;16.27;;;8.90;;
33505;SDS011;19843;51.040;13.782;2024-02-16T09:03:45;13.18;;;7.80;;
33505;SDS011;19843;51.040;13.782;2024-02-16T09:06:13;16.90;;;9.13;;
33505;SDS011;19843;51.040;13.782;2024-02-16T09:08:41;15.00;;;8.38;;
33505;SDS011;19843;51.040;13.782;2024-02-16T09:11:09;14.48;;;8.65;;
33505;SDS011;19843;51.040;13.782;2024-02-16T09:13:39;12.60;;;7.85;;
33505;SDS011;19843;51.040;13.782;2024-02-16T09:16:07;14.02;;;8.75;;
33505;SDS011;19843;51.040;13.782;2024-02-16T09:18:36;12.63;;;8.25;;
33505;SDS011;19843;51.040;13.782;2024-02-16T09:21:04;13.50;;;7.65;;
33505;SDS011;19843;51.040;13.782;2024-02-16T09:23:32;12.50;;;8.20;;
33505;SDS011;19843;51.040;13.782;2024-02-16T09:26:01;14.07;;;8.30;;
33505;SDS011;19843;51.040;13.782;2024-02-16T09:28:29;13.75;;;8.80;;
33505;SDS011;19843;51.040;13.782;2024-02-16T09:30:57;12.43;;;7.93;;
33505;SDS011;19843;51.040;13.782;2024-02-16T09:33:25;13.05;;;7.72;;
33505;SDS011;19843;51.040;13.782;2024-02-16T09:35:55;11.90;;;8.13;;
33505;SDS011;19843;51.040;13.782;2024-02-16T09:38:23;11.10;;;7.43;;
33505;SDS011;19843;51.040;13.782;2024-02-16T09:40:50;12.23;;;7.75;;
33505;SDS011;19843;51.040;13.782;2024-02-16T09:43:24;12.18;;;7.40;;
33505;SDS011;19843;51.040;13.782;2024-02-16T09:45:54;11.80;;;8.32;;
33505;SDS011;19843;51.040;13.782;2024-02-16T09:48:23;13.80;;;8.52;;
33505;SDS011;19843;51.040;13.782;2024-02-16T09:50:53;10.07;;;7.07;;
33505;SDS011;19843;51.040;13.782;2024-02-16T09:53:24;10.48;;;7.95;;
33505;SDS011;19843;51.040;13.782;2024-02-16T09:55:52;13.32;;;6.70;;
33505;SDS011;19843;51.040;13.782;2024-02-16T09:58:20;12.40;;;8.65;;
33505;SDS011;19843;51.040;13.782;2024-02-16T10:00:49;12.90;;;7.43;;
33505;SDS011;19843;51.040;13.782;2024-02-16T10:03:24;15.25;;;9.48;;
33505;SDS011;19843;51.040;13.782;2024-02-16T10:05:52;13.50;;;7.90;;
33505;SDS011;19843;51.040;13.782;2024-02-16T10:08:32;11.63;;;8.30;;
33505;SDS011;19843;51.040;13.782;2024-02-16T10:11:00;9.98;;;7.13;;
33505;SDS011;19843;51.040;13.782;2024-02-16T10:13:30;11.77;;;7.22;;
33505;SDS011;19843;51.040;13.782;2024-02-16T10:16:04;9.90;;;7.43;;
33505;SDS011;19843;51.040;13.782;2024-02-16T10:18:35;9.68;;;6.35;;
33505;SDS011;19843;51.040;13.782;2024-02-16T10:21:03;12.95;;;7.82;;
33505;SDS011;19843;51.040;13.782;2024-02-16T10:23:32;14.00;;;8.32;;
33505;SDS011;19843;51.040;13.782;2024-02-16T10:26:09;12.73;;;8.15;;
33505;SDS011;19843;51.040;13.782;2024-02-16T10:28:36;13.60;;;7.72;;
33505;SDS011;19843;51.040;13.782;2024-02-16T10:31:04;13.55;;;7.55;;
33505;SDS011;19843;51.040;13.782;2024-02-16T10:33:32;12.27;;;7.18;;
33505;SDS011;19843;51.040;13.782;2024-02-16T10:36:00;11.40;;;7.97;;
33505;SDS011;19843;51.040;13.782;2024-02-16T10:38:29;10.73;;;8.05;;
33505;SDS011;19843;51.040;13.782;2024-02-16T10:40:58;12.05;;;7.85;;
33505;SDS011;19843;51.040;13.782;2024-02-16T10:43:27;11.40;;;7.85;;
33505;SDS011;19843;51.040;13.782;2024-02-16T10:45:56;12.70;;;7.47;;
33505;SDS011;19843;51.040;13.782;2024-02-16T10:48:24;10.10;;;7.05;;
33505;SDS011;19843;51.040;13.782;2024-02-16T10:50:51;12.05;;;7.53;;
33505;SDS011;19843;51.040;13.782;2024-02-16T10:53:22;9.70;;;7.18;;
33505;SDS011;19843;51.040;13.782;2024-02-16T10:55:52;11.82;;;7.60;;
33505;SDS011;19843;51.040;13.782;2024-02-16T10:58:21;8.98;;;6.90;;
33505;SDS011;19843;51.040;13.782;2024-02-16T11:00:50;10.45;;;8.00;;
33505;SDS011;19843;51.040;13.782;2024-02-16T11:03:21;10.48;;;7.35;;
33505;SDS011;19843;51.040;13.782;2024-02-16T11:05:51;12.25;;;8.70;;
33505;SDS011;19843;51.040;13.782;2024-02-16T11:08:20;10.13;;;7.22;;
33505;SDS011;19843;51.040;13.782;2024-02-16T11:10:56;11.43;;;7.85;;
33505;SDS011;19843;51.040;13.782;2024-02-16T11:13:25;11.82;;;8.55;;
33505;SDS011;19843;51.040;13.782;2024-02-16T11:15:57;11.05;;;8.40;;
33505;SDS011;19843;51.040;13.782;2024-02-16T11:18:27;10.95;;;8.63;;
33505;SDS011;19843;51.040;13.782;2024-02-16T11:20:55;10.77;;;7.50;;
33505;SDS011;19843;51.040;13.782;2024-02-16T11:23:26;11.38;;;8.55;;
33505;SDS011;19843;51.040;13.782;2024-02-16T11:25:59;11.52;;;7.88;;
33505;SDS011;19843;51.040;13.782;2024-02-16T11:28:28;10.60;;;7.63;;
33505;SDS011;19843;51.040;13.782;2024-02-16T11:30:59;11.25;;;7.68;;
33505;SDS011;19843;51.040;13.782;2024-02-16T11:33:27;10.10;;;7.25;;
33505;SDS011;19843;51.040;13.782;2024-02-16T11:35:56;9.80;;;7.38;;
33505;SDS011;19843;51.040;13.782;2024-02-16T11:38:24;11.13;;;7.07;;
33505;SDS011;19843;51.040;13.782;2024-02-16T11:40:53;12.90;;;8.73;;
33505;SDS011;19843;51.040;13.782;2024-02-16T11:43:21;12.18;;;8.50;;
33505;SDS011;19843;51.040;13.782;2024-02-16T11:45:50;8.82;;;6.55;;
33505;SDS011;19843;51.040;13.782;2024-02-16T11:48:19;11.63;;;7.65;;
33505;SDS011;19843;51.040;13.782;2024-02-16T11:50:47;10.93;;;7.50;;
33505;SDS011;19843;51.040;13.782;2024-02-16T11:53:18;10.50;;;7.20;;
33505;SDS011;19843;51.040;13.782;2024-02-16T11:55:46;14.05;;;8.43;;
33505;SDS011;19843;51.040;13.782;2024-02-16T11:58:15;12.32;;;8.10;;
33505;SDS011;19843;51.040;13.782;2024-02-16T12:00:44;10.68;;;7.50;;
33505;SDS011;19843;51.040;13.782;2024-02-16T12:03:19;10.32;;;7.65;;
33505;SDS011;19843;51.040;13.782;2024-02-16T12:05:51;11.00;;;7.20;;
33505;SDS011;19843;51.040;13.782;2024-02-16T12:08:19;11.52;;;8.23;;
33505;SDS011;19843;51.040;13.782;2024-02-16T12:10:48;12.13;;;8.27;;
33505;SDS011;19843;51.040;13.782;2024-02-16T12:13:16;10.38;;;6.80;;
33505;SDS011;19843;51.040;13.782;2024-02-16T12:15:45;12.77;;;8.52;;
33505;SDS011;19843;51.040;13.782;2024-02-16T12:18:21;11.30;;;6.93;;
33505;SDS011;19843;51.040;13.782;2024-02-16T12:23:35;13.57;;;8.55;;
33505;SDS011;19843;51.040;13.782;2024-02-16T12:26:03;9.48;;;7.63;;
33505;SDS011;19843;51.040;13.782;2024-02-16T12:28:31;11.98;;;7.50;;
33505;SDS011;19843;51.040;13.782;2024-02-16T12:30:59;14.32;;;7.90;;
33505;SDS011;19843;51.040;13.782;2024-02-16T12:33:31;10.88;;;7.30;;
33505;SDS011;19843;51.040;13.782;2024-02-16T12:35:59;11.18;;;6.93;;
33505;SDS011;19843;51.040;13.782;2024-02-16T12:38:26;8.32;;;6.10;;
33505;SDS011;19843;51.040;13.782;2024-02-16T12:40:54;10.68;;;8.07;;
33505;SDS011;19843;51.040;13.782;2024-02-16T12:43:21;10.88;;;7.45;;
33505;SDS011;19843;51.040;13.782;2024-02-16T12:45:49;10.27;;;7.95;;
33505;SDS011;19843;51.040;13.782;2024-02-16T12:48:16;10.25;;;6.70;;
33505;SDS011;19843;51.040;13.782;2024-02-16T12:50:45;10.10;;;7.43;;
33505;SDS011;19843;51.040;13.782;2024-02-16T12:53:13;8.98;;;6.45;;
33505;SDS011;19843;51.040;13.782;2024-02-16T12:55:41;8.90;;;6.50;;
33505;SDS011;19843;51.040;13.782;2024-02-16T12:58:09;9.70;;;6.30;;
33505;SDS011;19843;51.040;13.782;2024-02-16T13:00:36;12.30;;;6.85;;
33505;SDS011;19843;51.040;13.782;2024-02-16T13:03:04;8.77;;;6.00;;
33505;SDS011;19843;51.040;13.782;2024-02-16T13:05:32;7.70;;;5.70;;
33505;SDS011;19843;51.040;13.782;2024-02-16T13:08:01;7.35;;;5.35;;
33505;SDS011;19843;51.040;13.782;2024-02-16T13:10:28;6.30;;;4.82;;
33505;SDS011;19843;51.040;13.782;2024-02-16T13:12:56;7.75;;;4.88;;
33505;SDS011;19843;51.040;13.782;2024-02-16T13:15:24;5.70;;;4.72;;
33505;SDS011;19843;51.040;13.782;2024-02-16T13:17:54;9.05;;;5.68;;
33505;SDS011;19843;51.040;13.782;2024-02-16T13:20:22;7.63;;;5.38;;
33505;SDS011;19843;51.040;13.782;2024-02-16T13:22:50;7.45;;;4.97;;
33505;SDS011;19843;51.040;13.782;2024-02-16T13:25:19;8.40;;;4.88;;
33505;SDS011;19843;51.040;13.782;2024-02-16T13:27:46;6.60;;;5.28;;
33505;SDS011;19843;51.040;13.782;2024-02-16T13:30:14;8.43;;;5.45;;
33505;SDS011;19843;51.040;13.782;2024-02-16T13:32:42;7.70;;;5.95;;
33505;SDS011;19843;51.040;13.782;2024-02-16T13:35:09;8.85;;;5.75;;
33505;SDS011;19843;51.040;13.782;2024-02-16T13:37:37;8.15;;;5.88;;
33505;SDS011;19843;51.040;13.782;2024-02-16T13:40:06;9.23;;;5.90;;
33505;SDS011;19843;51.040;13.782;2024-02-16T13:42:39;7.50;;;5.68;;
33505;SDS011;19843;51.040;13.782;2024-02-16T13:45:07;9.70;;;6.05;;
33505;SDS011;19843;51.040;13.782;2024-02-16T13:47:35;10.75;;;5.90;;
33505;SDS011;19843;51.040;13.782;2024-02-16T13:50:06;8.32;;;5.47;;
33505;SDS011;19843;51.040;13.782;2024-02-16T13:52:34;11.80;;;6.60;;
33505;SDS011;19843;51.040;13.782;2024-02-16T13:55:05;9.85;;;6.22;;
33505;SDS011;19843;51.040;13.782;2024-02-16T13:57:34;9.23;;;5.72;;
33505;SDS011;19843;51.040;13.782;2024-02-16T14:00:04;7.13;;;5.63;;
33505;SDS011;19843;51.040;13.782;2024-02-16T14:02:32;9.85;;;6.45;;
33505;SDS011;19843;51.040;13.782;2024-02-16T14:04:59;9.57;;;6.78;;
33505;SDS011;19843;51.040;13.782;2024-02-16T14:07:27;9.88;;;6.28;;
33505;SDS011;19843;51.040;13.782;2024-02-16T14:09:55;12.35;;;7.47;;
33505;SDS011;19843;51.040;13.782;2024-02-16T14:12:22;11.60;;;8.05;;
33505;SDS011;19843;51.040;13.782;2024-02-16T14:14:50;11.25;;;7.65;;
33505;SDS011;19843;51.040;13.782;2024-02-16T14:17:19;14.00;;;8.25;;
33505;SDS011;19843;51.040;13.782;2024-02-16T14:19:46;13.63;;;7.38;;
33505;SDS011;19843;51.040;13.782;2024-02-16T14:22:14;12.57;;;8.18;;
33505;SDS011;19843;51.040;13.782;2024-02-16T14:24:41;15.73;;;8.55;;
33505;SDS011;19843;51.040;13.782;2024-02-16T14:27:09;12.32;;;8.15;;
33505;SDS011;19843;51.040;13.782;2024-02-16T14:29:36;11.18;;;7.82;;
33505;SDS011;19843;51.040;13.782;2024-02-16T14:32:04;11.52;;;8.55;;
33505;SDS011;19843;51.040;13.782;2024-02-16T14:34:33;13.32;;;7.75;;